Ncc Najd — HZAK — position and weather

sailwx.info

Track history (hours):
 
Tides and Currents Weather Stations Pressure Air Temp Water Temp Dewpoint Dewpoint Depression Visibility Wind Speed Wind Dir Waves Ship Positions

Ncc Najd

Last reported at 2015-Feb-23 14:33 UTC. Time now 2015-Mar-30 14:16 UTC.
Position N 01°56' E 102°19'.
Warning: this ship's position is 34 days out of date.

Length 183 m; draft 8.3 m.

Type: Ship. MMSI: 403579000.

Date/timePositionNaut miles runAvg speedWind from/ knotsBaromVisibWave heightAir tempDewpointWater temp
2015-Feb-23 14:33N 01°56' E 102°19'1313.2
2015-Feb-23 13:32N 01°50' E 102°32'4615.2
2015-Feb-23 10:32N 01°27' E 103°11'31 4.9
2015-Feb-23 04:07N 01°13' E 103°39'7 1.0
2015-Feb-22 21:12N 01°08' E 103°44'7 8.9
2015-Feb-22 20:25N 01°12' E 103°51'1012.1
2015-Feb-22 19:33N 01°15' E 104°00'1312.1
2015-Feb-22 18:31N 01°17' E 104°13'  
2015-Feb-18 08:27N 22°36' E 119°47'1213.7
2015-Feb-18 07:33N 22°48' E 119°50'51813.6
2015-Feb-16 17:27N 30°48' E 123°27'1415.8
2015-Feb-16 16:33N 30°54' E 123°12'1515.2
2015-Feb-16 15:32N 30°58' E 122°54'1914.7
2015-Feb-16 14:15N 30°59' E 122°33'1013.6
2015-Feb-16 13:33N 31°01' E 122°22'1010.5
2015-Feb-16 12:33N 31°03' E 122°10'10 9.6
2015-Feb-16 11:34N 31°06' E 121°59'9 9.1
2015-Feb-16 10:34N 31°11' E 121°50'1010.3
2015-Feb-16 09:33N 31°19' E 121°42'1010.1
2015-Feb-16 08:34N 31°24' E 121°33'1010.2
2015-Feb-16 07:33N 31°31' E 121°23'1313.4
2015-Feb-16 06:34N 31°40' E 121°12'1412.6
2015-Feb-16 05:25N 31°47' E 120°57'1010.9
2015-Feb-16 04:30N 31°56' E 120°52'1111.2
2015-Feb-16 03:33N 31°60' E 120°41'1211.5
2015-Feb-16 02:33N 32°04' E 120°28'1313.2
2015-Feb-16 01:33N 31°56' E 120°15'6 5.5
2015-Feb-16 00:30N 31°57' E 120°08'5 5.0
2015-Feb-15 23:33N 31°58' E 120°03'6 6.0
2015-Feb-15 22:32N 32°02' E 119°58'0 0.0
2015-Feb-15 21:32N 32°02' E 119°58'0 0.0
2015-Feb-15 20:26N 32°02' E 119°58'0 0.0
2015-Feb-15 19:32N 32°02' E 119°58'0 0.1
2015-Feb-15 18:32N 32°02' E 119°58'0 0.0
2015-Feb-15 17:32N 32°02' E 119°58'0 0.0
2015-Feb-15 16:32N 32°02' E 119°58'0 0.1
2015-Feb-15 15:32N 32°02' E 119°58'0 0.0
2015-Feb-15 14:32N 32°02' E 119°58'0 0.0
2015-Feb-15 13:32N 32°02' E 119°58'0 0.0
2015-Feb-15 12:20N 32°02' E 119°58'0 0.0
2015-Feb-15 11:32N 32°02' E 119°58'0 0.0
2015-Feb-15 10:32N 32°02' E 119°58'0 0.0
2015-Feb-15 09:32N 32°02' E 119°58'1 0.6
2015-Feb-15 08:33N 32°01' E 119°58'3 0.2
2015-Feb-14 15:32N 31°59' E 119°60'  
Track history (hours):
 
Tides and Currents Weather Stations Pressure Air Temp Water Temp Dewpoint Dewpoint Depression Visibility Wind Speed Wind Dir Waves Ship Positions

Ncc Najd

Last reported at 2015-Feb-23 14:33 UTC. Time now 2015-Mar-30 14:16 UTC.
Position N 01°56' E 102°19'.
Warning: this ship's position is 34 days out of date.

Length 183 m; draft 8.3 m.

Type: Ship. MMSI: 403579000.

Date/timePositionNaut miles runAvg speedWind from/ knotsBaromVisibWave heightAir tempDewpointWater temp
2015-Feb-23 14:33N 01°56' E 102°19'1313.2
2015-Feb-23 13:32N 01°50' E 102°32'4615.2
2015-Feb-23 10:32N 01°27' E 103°11'31 4.9
2015-Feb-23 04:07N 01°13' E 103°39'7 1.0
2015-Feb-22 21:12N 01°08' E 103°44'7 8.9
2015-Feb-22 20:25N 01°12' E 103°51'1012.1
2015-Feb-22 19:33N 01°15' E 104°00'1312.1
2015-Feb-22 18:31N 01°17' E 104°13'  
2015-Feb-18 08:27N 22°36' E 119°47'1213.7
2015-Feb-18 07:33N 22°48' E 119°50'51813.6
2015-Feb-16 17:27N 30°48' E 123°27'1415.8
2015-Feb-16 16:33N 30°54' E 123°12'1515.2
2015-Feb-16 15:32N 30°58' E 122°54'1914.7
2015-Feb-16 14:15N 30°59' E 122°33'1013.6
2015-Feb-16 13:33N 31°01' E 122°22'1010.5
2015-Feb-16 12:33N 31°03' E 122°10'10 9.6
2015-Feb-16 11:34N 31°06' E 121°59'9 9.1
2015-Feb-16 10:34N 31°11' E 121°50'1010.3
2015-Feb-16 09:33N 31°19' E 121°42'1010.1
2015-Feb-16 08:34N 31°24' E 121°33'1010.2
2015-Feb-16 07:33N 31°31' E 121°23'1313.4
2015-Feb-16 06:34N 31°40' E 121°12'1412.6
2015-Feb-16 05:25N 31°47' E 120°57'1010.9
2015-Feb-16 04:30N 31°56' E 120°52'1111.2
2015-Feb-16 03:33N 31°60' E 120°41'1211.5
2015-Feb-16 02:33N 32°04' E 120°28'1313.2
2015-Feb-16 01:33N 31°56' E 120°15'6 5.5
2015-Feb-16 00:30N 31°57' E 120°08'5 5.0
2015-Feb-15 23:33N 31°58' E 120°03'6 6.0
2015-Feb-15 22:32N 32°02' E 119°58'0 0.0
2015-Feb-15 21:32N 32°02' E 119°58'0 0.0
2015-Feb-15 20:26N 32°02' E 119°58'0 0.0
2015-Feb-15 19:32N 32°02' E 119°58'0 0.1
2015-Feb-15 18:32N 32°02' E 119°58'0 0.0
2015-Feb-15 17:32N 32°02' E 119°58'0 0.0
2015-Feb-15 16:32N 32°02' E 119°58'0 0.1
2015-Feb-15 15:32N 32°02' E 119°58'0 0.0
2015-Feb-15 14:32N 32°02' E 119°58'0 0.0
2015-Feb-15 13:32N 32°02' E 119°58'0 0.0
2015-Feb-15 12:20N 32°02' E 119°58'0 0.0
2015-Feb-15 11:32N 32°02' E 119°58'0 0.0
2015-Feb-15 10:32N 32°02' E 119°58'0 0.0
2015-Feb-15 09:32N 32°02' E 119°58'1 0.6
2015-Feb-15 08:33N 32°01' E 119°58'3 0.2
2015-Feb-14 15:32N 31°59' E 119°60'  

Dump ship's entire track history